Time;durP1;ratioP1;P1;durP2;ratioP2;P2;SDS_P1;SDS_P2;PMS_P1;PMS_P2;Temp;Humidity;BMP_temperature;BMP_pressure;BME280_temperature;BME280_humidity;BME280_pressure;Samples;Min_cycle;Max_cycle;Signal;HPM_P1;HPM_P2
2023/12/30 00:02:07;;;;;;;6.95;0.85;;;6.70;99.90;;;;;;5105914;27;20386;-70
2023/12/30 00:04:33;;;;;;;10.23;2.20;;;6.70;99.90;;;;;;5103470;27;20031;-70
2023/12/30 00:06:59;;;;;;;8.48;0.82;;;6.70;99.90;;;;;;5100603;28;20044;-70
2023/12/30 00:09:24;;;;;;;5.40;0.60;;;6.70;99.90;;;;;;5103775;28;20061;-70
2023/12/30 00:11:50;;;;;;;4.18;0.60;;;6.70;99.90;;;;;;5101651;27;20128;-70
2023/12/30 00:14:16;;;;;;;5.97;0.75;;;6.70;99.90;;;;;;5103657;27;20032;-70
2023/12/30 00:16:41;;;;;;;5.25;0.70;;;6.70;99.90;;;;;;5135111;27;20039;-70
2023/12/30 00:19:08;;;;;;;6.20;1.00;;;6.60;99.90;;;;;;5102911;27;20104;-70
2023/12/30 00:21:34;;;;;;;6.85;0.82;;;6.60;99.90;;;;;;5105560;27;20058;-70
2023/12/30 00:24:00;;;;;;;7.50;0.77;;;6.60;99.90;;;;;;5105380;27;20039;-70
2023/12/30 00:26:26;;;;;;;5.75;0.90;;;6.60;99.90;;;;;;5087618;28;20047;-70
2023/12/30 00:28:53;;;;;;;7.18;0.80;;;6.60;99.90;;;;;;5135892;27;20132;-70
2023/12/30 00:31:27;;;;;;;4.80;0.52;;;6.50;99.90;;;;;;5121759;27;20047;-70
2023/12/30 00:33:55;;;;;;;4.28;0.70;;;6.50;99.90;;;;;;5133606;27;20036;-70
2023/12/30 00:36:21;;;;;;;8.50;0.77;;;6.50;99.90;;;;;;5103650;27;20081;-70
2023/12/30 00:38:46;;;;;;;7.93;0.98;;;6.70;99.90;;;;;;5103919;27;20059;-70
2023/12/30 00:41:13;;;;;;;7.40;0.60;;;6.50;99.90;;;;;;5101308;27;20050;-70
2023/12/30 00:43:40;;;;;;;5.30;0.75;;;6.50;99.90;;;;;;5101469;27;20127;-70
2023/12/30 00:46:06;;;;;;;7.00;0.70;;;6.40;99.90;;;;;;5106320;27;20039;-70
2023/12/30 00:48:33;;;;;;;7.85;1.27;;;6.50;99.90;;;;;;5085384;27;20035;-70
2023/12/30 00:51:00;;;;;;;6.07;0.65;;;6.50;99.90;;;;;;5101103;27;20040;-70
2023/12/30 00:53:26;;;;;;;8.13;0.70;;;6.50;99.90;;;;;;5101856;27;20102;-70
2023/12/30 00:55:53;;;;;;;5.07;0.98;;;6.40;99.90;;;;;;5104137;27;20539;-70
2023/12/30 00:58:20;;;;;;;5.45;0.80;;;6.40;99.90;;;;;;5102027;27;20043;-70
2023/12/30 01:00:46;;;;;;;7.63;0.95;;;6.40;99.90;;;;;;5101642;27;20085;-70
2023/12/30 01:03:12;;;;;;;6.72;1.13;;;6.40;99.90;;;;;;5102609;27;20432;-70
2023/12/30 01:05:37;;;;;;;12.38;2.10;;;6.40;99.90;;;;;;5103346;28;20040;-70
2023/12/30 01:08:03;;;;;;;6.53;1.02;;;6.50;99.90;;;;;;5134002;27;20040;-70
2023/12/30 01:10:29;;;;;;;6.63;0.90;;;6.40;99.90;;;;;;5103205;28;20047;-70
2023/12/30 01:12:55;;;;;;;8.07;0.77;;;6.40;99.90;;;;;;5102566;27;20054;-70
2023/12/30 01:15:20;;;;;;;4.40;0.57;;;6.40;99.90;;;;;;5102234;28;20447;-70
2023/12/30 01:17:46;;;;;;;7.85;0.88;;;6.30;99.90;;;;;;5132588;27;20058;-70
2023/12/30 01:20:12;;;;;;;5.38;0.90;;;6.30;99.90;;;;;;5106980;27;20469;-70
2023/12/30 01:22:38;;;;;;;6.75;0.77;;;6.30;99.90;;;;;;5102765;27;20409;-70
2023/12/30 01:25:05;;;;;;;10.30;1.52;;;6.20;99.90;;;;;;5102124;27;20038;-70
2023/12/30 01:27:30;;;;;;;7.30;1.23;;;6.30;99.90;;;;;;5136036;27;20036;-70
2023/12/30 01:29:56;;;;;;;6.78;0.80;;;6.20;99.90;;;;;;5103513;27;20103;-70
2023/12/30 01:32:22;;;;;;;5.75;0.70;;;6.20;99.90;;;;;;5100497;27;20075;-70
2023/12/30 01:34:47;;;;;;;6.60;0.75;;;6.20;99.90;;;;;;5098660;27;20052;-70
2023/12/30 01:37:13;;;;;;;5.40;0.60;;;6.20;99.90;;;;;;5100017;27;20039;-70
2023/12/30 01:39:39;;;;;;;5.25;0.68;;;6.20;99.90;;;;;;5132669;27;20067;-70
2023/12/30 01:42:04;;;;;;;7.28;1.48;;;6.30;99.90;;;;;;5103432;27;20519;-70
2023/12/30 01:44:30;;;;;;;5.43;0.60;;;6.20;99.90;;;;;;5099048;28;20134;-70
2023/12/30 01:46:56;;;;;;;8.20;1.38;;;6.20;99.90;;;;;;5100427;27;20040;-70
2023/12/30 01:49:22;;;;;;;8.68;0.85;;;6.20;99.90;;;;;;5104958;28;20122;-70
2023/12/30 01:51:49;;;;;;;9.18;0.63;;;6.20;99.90;;;;;;5102314;28;20100;-70
2023/12/30 01:54:17;;;;;;;7.93;0.60;;;6.20;99.90;;;;;;5102057;28;20498;-70
2023/12/30 01:56:43;;;;;;;2.17;0.40;;;6.20;99.90;;;;;;5100343;27;20047;-70
2023/12/30 01:59:11;;;;;;;8.75;1.13;;;6.30;99.90;;;;;;5099691;28;20118;-70
2023/12/30 02:01:36;;;;;;;4.35;0.43;;;6.30;99.90;;;;;;5134819;27;20955;-70
2023/12/30 02:04:02;;;;;;;7.40;0.70;;;6.20;99.90;;;;;;5097818;28;20078;-70
2023/12/30 02:06:28;;;;;;;8.60;0.80;;;6.20;99.90;;;;;;5132084;27;20100;-70
2023/12/30 02:08:54;;;;;;;4.72;0.60;;;6.20;99.90;;;;;;5098756;27;20662;-70
2023/12/30 02:11:20;;;;;;;8.20;0.80;;;6.20;99.90;;;;;;5099672;28;20028;-70
2023/12/30 02:13:45;;;;;;;5.45;0.90;;;6.20;99.90;;;;;;5101232;28;20036;-70
2023/12/30 02:16:11;;;;;;;7.63;0.88;;;6.20;99.90;;;;;;5101506;28;20069;-70
2023/12/30 02:18:38;;;;;;;9.98;0.65;;;6.30;99.90;;;;;;5102376;28;20393;-70
2023/12/30 02:21:04;;;;;;;10.90;1.52;;;6.30;99.90;;;;;;5100408;28;20745;-70
2023/12/30 02:23:30;;;;;;;9.63;0.65;;;6.30;99.90;;;;;;5103540;28;20062;-70
2023/12/30 02:25:56;;;;;;;7.72;1.25;;;6.20;99.90;;;;;;5135890;27;20040;-70
2023/12/30 02:28:21;;;;;;;7.47;0.82;;;6.30;99.90;;;;;;5102775;28;20115;-70
2023/12/30 02:30:47;;;;;;;7.45;1.17;;;6.30;99.90;;;;;;5101387;28;20040;-70
2023/12/30 02:33:13;;;;;;;7.18;1.27;;;6.30;99.90;;;;;;5101218;28;20549;-70
2023/12/30 02:35:42;;;;;;;7.45;0.85;;;6.30;99.90;;;;;;5099373;28;20043;-70
2023/12/30 02:38:08;;;;;;;10.82;1.35;;;6.20;99.90;;;;;;5102499;28;20481;-70
2023/12/30 02:40:34;;;;;;;10.00;0.80;;;6.30;99.90;;;;;;5088141;28;20036;-70
2023/12/30 02:43:00;;;;;;;11.20;1.10;;;6.20;99.90;;;;;;5084114;28;20046;-70
2023/12/30 02:45:25;;;;;;;6.55;1.23;;;6.20;99.90;;;;;;5099727;28;20212;-69
2023/12/30 02:47:51;;;;;;;7.55;0.95;;;6.30;99.90;;;;;;5097618;28;20039;-70
2023/12/30 02:50:16;;;;;;;6.30;0.93;;;6.20;99.90;;;;;;5099084;28;20043;-70
2023/12/30 02:52:42;;;;;;;4.65;0.75;;;6.20;99.90;;;;;;5133490;27;20044;-70
2023/12/30 02:55:08;;;;;;;6.95;0.70;;;6.20;99.90;;;;;;5131278;27;20476;-70
2023/12/30 02:57:33;;;;;;;7.18;1.35;;;6.20;99.90;;;;;;5098277;28;20052;-70
2023/12/30 02:59:59;;;;;;;4.03;0.60;;;6.20;99.90;;;;;;5098208;28;20497;-70
2023/12/30 03:02:25;;;;;;;7.78;0.82;;;6.30;99.90;;;;;;5132511;27;20131;-70
2023/12/30 03:04:51;;;;;;;8.88;2.10;;;6.30;99.90;;;;;;5101832;28;20084;-70
2023/12/30 03:07:17;;;;;;;8.90;0.75;;;6.30;99.90;;;;;;5100623;28;20965;-70
2023/12/30 03:09:43;;;;;;;9.60;1.38;;;6.30;99.90;;;;;;5103964;28;20039;-70
2023/12/30 03:12:09;;;;;;;8.57;1.25;;;6.30;99.90;;;;;;5100805;28;20063;-70
2023/12/30 03:14:35;;;;;;;8.45;0.85;;;6.30;99.90;;;;;;5102409;28;20354;-70
2023/12/30 03:17:01;;;;;;;8.55;1.10;;;6.30;99.90;;;;;;5096023;28;20036;-70
2023/12/30 03:19:27;;;;;;;5.78;0.70;;;6.30;99.90;;;;;;5102143;28;20372;-70
2023/12/30 03:21:53;;;;;;;13.07;0.93;;;6.30;99.90;;;;;;5102934;28;20038;-70
2023/12/30 03:24:20;;;;;;;8.20;0.82;;;6.30;99.90;;;;;;5131863;27;20036;-70
2023/12/30 03:26:45;;;;;;;6.70;0.88;;;6.30;99.90;;;;;;5103653;28;20039;-70
2023/12/30 03:29:11;;;;;;;7.28;0.75;;;6.30;99.90;;;;;;5100060;28;20038;-70
2023/12/30 03:31:37;;;;;;;8.52;1.33;;;6.20;99.90;;;;;;5104573;27;20035;-69
2023/12/30 03:34:02;;;;;;;8.30;1.58;;;6.30;99.90;;;;;;5105091;27;20160;-70
2023/12/30 03:36:28;;;;;;;9.40;0.82;;;6.30;99.90;;;;;;5101265;27;20462;-70
2023/12/30 03:38:54;;;;;;;6.70;1.00;;;6.30;99.90;;;;;;5139003;27;20046;-70
2023/12/30 03:41:20;;;;;;;11.60;1.30;;;6.30;99.90;;;;;;5102183;27;20044;-70
2023/12/30 03:43:47;;;;;;;8.45;1.50;;;6.30;99.90;;;;;;5135696;27;20059;-70
2023/12/30 03:46:12;;;;;;;6.10;0.90;;;6.30;99.90;;;;;;5135941;27;20036;-70
2023/12/30 03:48:38;;;;;;;7.18;0.95;;;6.30;99.90;;;;;;5104162;27;21442;-70
2023/12/30 03:51:05;;;;;;;8.30;1.73;;;6.30;99.90;;;;;;5104699;27;20044;-70
2023/12/30 03:53:31;;;;;;;6.38;0.73;;;6.30;99.90;;;;;;5134991;27;20489;-70
2023/12/30 03:55:57;;;;;;;11.00;1.15;;;6.30;99.90;;;;;;5103798;27;20039;-70
2023/12/30 03:58:23;;;;;;;7.57;1.92;;;6.30;99.90;;;;;;5101842;27;20543;-70
2023/12/30 04:00:49;;;;;;;4.80;0.85;;;6.20;99.90;;;;;;5102406;27;20177;-71
2023/12/30 04:03:14;;;;;;;10.27;1.40;;;6.30;99.90;;;;;;5091263;28;20047;-70
2023/12/30 04:05:40;;;;;;;10.27;1.50;;;6.20;99.90;;;;;;5102642;28;20366;-70
2023/12/30 04:08:06;;;;;;;5.10;0.77;;;6.20;99.90;;;;;;5103644;27;20096;-70
2023/12/30 04:10:32;;;;;;;6.30;1.20;;;6.20;99.90;;;;;;5101580;27;20726;-71
2023/12/30 04:12:58;;;;;;;10.45;1.30;;;6.20;99.90;;;;;;5105788;27;20092;-70
2023/12/30 04:15:23;;;;;;;9.25;1.70;;;6.20;99.90;;;;;;5101900;27;20611;-70
2023/12/30 04:17:49;;;;;;;5.82;1.00;;;6.20;99.90;;;;;;5117545;27;20128;-70
2023/12/30 04:20:15;;;;;;;9.65;1.02;;;6.10;99.90;;;;;;5106208;27;20063;-70
2023/12/30 04:22:40;;;;;;;8.82;0.80;;;6.10;99.90;;;;;;5134422;27;20047;-70
2023/12/30 04:25:06;;;;;;;7.65;1.00;;;6.10;99.90;;;;;;5104748;27;20035;-70
2023/12/30 04:27:32;;;;;;;7.97;1.02;;;6.10;99.90;;;;;;5099698;27;20044;-70
2023/12/30 04:29:58;;;;;;;10.30;0.90;;;6.10;99.90;;;;;;5107919;27;20035;-70
2023/12/30 04:32:26;;;;;;;10.95;1.67;;;6.10;99.90;;;;;;5112307;27;20069;-70
2023/12/30 04:34:52;;;;;;;10.10;1.02;;;6.00;99.90;;;;;;5099128;27;20028;-70
2023/12/30 04:37:19;;;;;;;7.35;0.88;;;6.10;99.90;;;;;;5086528;28;20154;-70
2023/12/30 04:39:44;;;;;;;10.50;0.98;;;6.10;99.90;;;;;;5132411;27;20040;-70
2023/12/30 04:42:10;;;;;;;12.48;1.55;;;6.10;99.90;;;;;;5101407;28;20559;-70
2023/12/30 04:44:36;;;;;;;11.68;1.90;;;6.10;99.90;;;;;;5101919;27;20048;-70
2023/12/30 04:47:02;;;;;;;7.80;1.65;;;6.10;99.90;;;;;;5099511;28;20500;-70
2023/12/30 04:49:27;;;;;;;11.95;1.58;;;6.10;99.90;;;;;;5103358;27;20035;-70
2023/12/30 04:51:53;;;;;;;9.10;1.10;;;6.00;99.90;;;;;;5103825;27;20046;-70
2023/12/30 04:54:18;;;;;;;5.10;1.27;;;6.00;99.90;;;;;;5098409;27;20126;-70
2023/12/30 04:56:44;;;;;;;8.88;1.73;;;6.10;99.90;;;;;;5098514;27;20160;-70
2023/12/30 04:59:11;;;;;;;9.93;1.55;;;6.00;99.90;;;;;;5101565;28;20396;-70
2023/12/30 05:01:37;;;;;;;8.88;1.38;;;5.90;99.90;;;;;;5104361;27;20040;-70
2023/12/30 05:04:05;;;;;;;7.18;1.13;;;6.10;99.90;;;;;;5103006;27;20038;-70
2023/12/30 05:06:31;;;;;;;6.72;0.85;;;6.00;99.90;;;;;;5133098;27;20044;-70
2023/12/30 05:08:59;;;;;;;14.75;1.50;;;5.90;99.90;;;;;;5103254;27;20033;-70
2023/12/30 05:11:24;;;;;;;6.57;0.90;;;5.90;99.90;;;;;;5100861;28;20052;-70
2023/12/30 05:13:50;;;;;;;10.35;1.33;;;5.90;99.90;;;;;;5133655;27;20534;-70
2023/12/30 05:16:16;;;;;;;9.70;1.20;;;5.90;99.90;;;;;;5100566;27;20563;-70
2023/12/30 05:18:42;;;;;;;12.65;1.10;;;5.90;99.90;;;;;;5132433;27;20055;-70
2023/12/30 05:21:15;;;;;;;8.23;1.05;;;5.90;99.90;;;;;;5099358;27;20039;-70
2023/12/30 05:23:41;;;;;;;8.98;1.13;;;5.90;99.90;;;;;;5101226;28;20050;-70
2023/12/30 05:26:08;;;;;;;13.65;1.50;;;5.90;99.90;;;;;;5100917;27;20054;-70
2023/12/30 05:28:34;;;;;;;9.75;1.35;;;5.90;99.90;;;;;;5094956;28;20602;-70
2023/12/30 05:31:01;;;;;;;9.98;1.20;;;5.90;99.90;;;;;;5101839;27;20028;-70
2023/12/30 05:33:27;;;;;;;8.02;1.30;;;5.90;99.90;;;;;;5101715;27;20100;-70
2023/12/30 05:35:53;;;;;;;11.57;1.55;;;5.90;99.90;;;;;;5101289;28;20031;-70
2023/12/30 05:38:18;;;;;;;11.63;1.58;;;5.90;99.90;;;;;;5099799;28;20024;-70
2023/12/30 05:40:44;;;;;;;8.30;1.00;;;5.90;99.90;;;;;;5101400;28;20050;-70
2023/12/30 05:43:10;;;;;;;12.45;1.73;;;5.90;99.90;;;;;;5101248;27;20127;-70
2023/12/30 05:45:35;;;;;;;15.75;1.65;;;6.00;99.90;;;;;;5135450;27;20040;-70
2023/12/30 05:48:02;;;;;;;9.75;1.40;;;6.00;99.90;;;;;;5099866;28;20081;-70
2023/12/30 05:50:28;;;;;;;10.98;1.40;;;5.90;99.90;;;;;;5098751;28;20054;-70
2023/12/30 05:52:54;;;;;;;13.10;1.55;;;5.90;99.90;;;;;;5089123;28;20088;-70
2023/12/30 05:55:20;;;;;;;6.45;1.08;;;5.90;99.90;;;;;;5099613;28;20132;-70
2023/12/30 05:57:46;;;;;;;8.73;0.98;;;6.00;99.90;;;;;;5098883;27;20043;-70
2023/12/30 06:00:16;;;;;;;12.25;1.60;;;6.00;99.90;;;;;;5133369;27;20367;-70
2023/12/30 06:02:42;;;;;;;12.75;1.02;;;6.00;99.90;;;;;;5099721;28;20035;-70
2023/12/30 06:05:08;;;;;;;6.82;1.05;;;6.00;99.90;;;;;;5083524;28;20122;-70
2023/12/30 06:07:34;;;;;;;5.82;0.80;;;6.10;99.90;;;;;;5132293;27;20134;-70
2023/12/30 06:10:00;;;;;;;9.32;1.20;;;6.10;99.90;;;;;;5099561;28;20092;-70
2023/12/30 06:12:26;;;;;;;10.73;2.17;;;6.20;99.90;;;;;;5097727;27;20055;-70
2023/12/30 06:14:52;;;;;;;10.23;1.50;;;6.20;99.90;;;;;;5097741;28;20535;-70
2023/12/30 06:17:17;;;;;;;11.20;1.65;;;6.20;99.90;;;;;;5099817;28;20414;-70
2023/12/30 06:19:43;;;;;;;10.55;1.52;;;6.20;99.90;;;;;;5098495;28;20075;-70
2023/12/30 06:22:09;;;;;;;10.98;1.85;;;6.20;99.90;;;;;;5103356;28;20076;-70
2023/12/30 06:24:35;;;;;;;16.38;1.23;;;6.20;99.90;;;;;;5097079;28;20457;-70
2023/12/30 06:27:00;;;;;;;7.97;1.15;;;6.20;99.90;;;;;;5100460;28;20032;-70
2023/12/30 06:29:29;;;;;;;8.07;1.25;;;6.10;99.90;;;;;;5100928;28;20040;-70
2023/12/30 06:31:54;;;;;;;12.05;1.23;;;6.10;99.90;;;;;;5096772;28;20043;-70
2023/12/30 06:34:20;;;;;;;9.85;1.08;;;6.10;99.90;;;;;;5133863;27;20131;-70
2023/12/30 06:36:47;;;;;;;9.57;1.45;;;6.00;99.90;;;;;;5097735;28;20035;-70
2023/12/30 06:39:15;;;;;;;7.20;1.20;;;6.10;99.90;;;;;;5101836;28;20035;-70
2023/12/30 06:41:41;;;;;;;11.98;1.10;;;6.00;99.90;;;;;;5130800;27;20044;-70
2023/12/30 06:44:08;;;;;;;8.95;1.85;;;6.00;99.90;;;;;;5131341;27;20101;-71
2023/12/30 06:46:34;;;;;;;9.43;1.30;;;6.10;99.90;;;;;;5105168;28;20478;-71
2023/12/30 06:49:00;;;;;;;11.45;1.88;;;6.00;99.90;;;;;;5099722;28;20082;-70
2023/12/30 06:51:27;;;;;;;13.98;1.92;;;6.10;99.90;;;;;;5100012;28;20040;-70
2023/12/30 06:53:53;;;;;;;9.45;1.08;;;6.10;99.90;;;;;;5129483;27;20142;-71
2023/12/30 06:56:19;;;;;;;8.18;1.13;;;6.10;99.90;;;;;;5129687;27;20051;-69
2023/12/30 06:58:45;;;;;;;10.82;1.40;;;6.30;99.90;;;;;;5097790;28;20522;-70
2023/12/30 07:01:14;;;;;;;8.60;1.30;;;6.10;99.90;;;;;;5087617;28;20067;-70
2023/12/30 07:03:40;;;;;;;7.38;0.95;;;6.10;99.90;;;;;;5100750;27;20047;-70
2023/12/30 07:06:06;;;;;;;14.00;1.88;;;6.20;99.90;;;;;;5103110;28;20126;-70
2023/12/30 07:08:32;;;;;;;7.47;1.05;;;6.10;99.90;;;;;;5102310;27;20123;-70
2023/12/30 07:10:58;;;;;;;8.77;0.80;;;6.10;99.90;;;;;;5101015;27;20540;-70
2023/12/30 07:13:23;;;;;;;13.68;2.10;;;6.10;99.90;;;;;;5139509;27;20047;-70
2023/12/30 07:15:50;;;;;;;11.68;1.33;;;6.00;99.90;;;;;;5098735;27;20448;-70
2023/12/30 07:18:19;;;;;;;16.77;1.60;;;6.00;99.90;;;;;;5134414;27;20055;-70
2023/12/30 07:20:45;;;;;;;9.05;1.10;;;6.00;99.90;;;;;;5102807;27;20088;-70
2023/12/30 07:23:10;;;;;;;15.45;1.83;;;5.90;99.90;;;;;;5137071;27;20036;-70
2023/12/30 07:25:36;;;;;;;11.45;1.38;;;5.90;99.90;;;;;;5105182;27;20123;-70
2023/12/30 07:28:02;;;;;;;8.25;1.00;;;5.90;99.90;;;;;;5103816;27;20043;-70
2023/12/30 07:30:28;;;;;;;8.40;1.05;;;5.80;99.90;;;;;;5102668;27;20394;-70
2023/12/30 07:32:54;;;;;;;8.48;1.65;;;5.90;99.90;;;;;;5105821;27;20039;-70
2023/12/30 07:35:20;;;;;;;10.75;1.23;;;5.80;99.90;;;;;;5104092;27;20055;-70
2023/12/30 07:37:46;;;;;;;13.93;1.75;;;5.80;99.90;;;;;;5090711;28;20082;-70
2023/12/30 07:40:12;;;;;;;12.43;1.80;;;5.80;99.90;;;;;;5135173;27;20031;-70
2023/12/30 07:42:38;;;;;;;9.80;1.35;;;5.70;99.90;;;;;;5134263;27;20048;-70
2023/12/30 07:45:06;;;;;;;10.27;1.33;;;5.80;99.90;;;;;;5103480;27;20080;-70
2023/12/30 07:47:33;;;;;;;11.90;2.33;;;5.70;99.90;;;;;;5135968;27;20104;-70
2023/12/30 07:49:58;;;;;;;16.73;2.72;;;5.80;99.90;;;;;;5136241;27;20036;-70
2023/12/30 07:52:25;;;;;;;10.95;1.48;;;5.70;99.90;;;;;;5132032;27;20470;-70
2023/12/30 07:54:52;;;;;;;15.95;1.92;;;5.70;99.90;;;;;;5136378;27;20048;-70
2023/12/30 07:57:18;;;;;;;11.93;1.60;;;5.70;99.90;;;;;;5102653;27;20405;-70
2023/12/30 07:59:43;;;;;;;8.30;1.25;;;5.60;99.90;;;;;;5138009;27;20051;-70
2023/12/30 08:02:09;;;;;;;14.13;2.40;;;5.70;99.90;;;;;;5105816;27;20095;-70
2023/12/30 08:04:35;;;;;;;7.38;0.95;;;5.70;99.90;;;;;;5101422;28;20550;-70
2023/12/30 08:07:01;;;;;;;8.45;1.13;;;5.70;99.90;;;;;;5106783;28;20043;-70
2023/12/30 08:09:26;;;;;;;13.75;1.60;;;5.70;99.90;;;;;;5101798;28;20389;-70
2023/12/30 08:11:52;;;;;;;13.00;1.90;;;5.70;99.90;;;;;;5102627;28;20035;-70
2023/12/30 08:14:18;;;;;;;9.57;1.30;;;5.60;99.90;;;;;;5102088;27;20052;-70
2023/12/30 08:16:43;;;;;;;13.32;1.15;;;5.60;99.90;;;;;;5101630;27;20051;-70
2023/12/30 08:19:09;;;;;;;13.80;1.40;;;5.50;99.90;;;;;;5103320;27;20039;-70
2023/12/30 08:21:35;;;;;;;11.77;1.42;;;5.50;99.90;;;;;;5103430;27;20042;-70
2023/12/30 08:24:01;;;;;;;9.48;1.10;;;5.50;99.90;;;;;;5101306;28;20032;-70
2023/12/30 08:26:28;;;;;;;12.23;2.40;;;5.40;99.90;;;;;;5102003;27;20067;-70
2023/12/30 08:28:54;;;;;;;9.20;2.20;;;5.50;99.90;;;;;;5101811;28;20032;-70
2023/12/30 08:31:21;;;;;;;6.63;1.15;;;5.40;99.90;;;;;;5101515;27;20478;-70
2023/12/30 08:33:47;;;;;;;4.82;0.70;;;5.40;99.90;;;;;;5096755;28;20136;-70
2023/12/30 08:36:13;;;;;;;8.23;1.00;;;5.50;99.90;;;;;;5101082;27;20035;-70
2023/12/30 08:38:39;;;;;;;4.93;0.63;;;5.50;99.90;;;;;;5132257;27;20176;-70
2023/12/30 08:41:09;;;;;;;7.68;1.15;;;5.40;99.90;;;;;;5099229;27;20077;-70
2023/12/30 08:43:36;;;;;;;14.18;1.10;;;5.50;99.90;;;;;;5099117;28;20097;-70
2023/12/30 08:46:02;;;;;;;7.53;0.90;;;5.50;99.90;;;;;;5100242;27;20051;-70
2023/12/30 08:48:27;;;;;;;8.13;1.05;;;5.60;99.90;;;;;;5104850;27;20027;-70
2023/12/30 08:50:53;;;;;;;12.45;1.95;;;5.50;99.90;;;;;;5100962;28;21214;-70
2023/12/30 08:53:24;;;;;;;12.43;0.90;;;5.60;99.90;;;;;;5136310;27;20031;-70
2023/12/30 08:55:54;;;;;;;7.45;1.45;;;5.60;99.90;;;;;;5133843;27;20039;-70
2023/12/30 08:58:26;;;;;;;7.60;1.48;;;5.70;99.90;;;;;;5099777;27;20066;-70
2023/12/30 09:00:53;;;;;;;8.70;1.40;;;5.60;99.90;;;;;;5103837;27;20032;-70
2023/12/30 09:03:18;;;;;;;10.60;1.17;;;5.60;99.90;;;;;;5099205;27;20039;-70
2023/12/30 09:05:44;;;;;;;8.70;1.50;;;5.60;99.90;;;;;;5097808;27;20043;-70
2023/12/30 09:08:10;;;;;;;11.93;1.80;;;5.60;99.90;;;;;;5134133;27;20484;-70
2023/12/30 09:10:37;;;;;;;8.15;0.90;;;5.70;99.90;;;;;;5101953;27;20044;-70
2023/12/30 09:13:03;;;;;;;12.50;1.63;;;5.70;99.90;;;;;;5101388;28;20024;-70
2023/12/30 09:15:29;;;;;;;9.98;1.60;;;5.70;99.90;;;;;;5099260;27;20040;-70
2023/12/30 09:17:57;;;;;;;11.68;2.40;;;5.70;99.90;;;;;;5100865;27;20478;-70
2023/12/30 09:20:22;;;;;;;8.30;2.03;;;5.70;99.90;;;;;;5100744;27;20058;-70
2023/12/30 09:22:49;;;;;;;8.13;1.90;;;5.80;99.90;;;;;;5102983;28;20073;-71
2023/12/30 09:25:15;;;;;;;7.65;1.67;;;5.80;99.90;;;;;;5100967;27;20113;-71
2023/12/30 09:27:41;;;;;;;6.63;1.30;;;5.90;99.90;;;;;;5099536;28;20048;-71
2023/12/30 09:30:08;;;;;;;10.30;2.63;;;6.00;99.90;;;;;;5099397;27;20048;-73
2023/12/30 09:32:33;;;;;;;11.05;1.30;;;6.10;99.90;;;;;;5100086;27;20038;-74
2023/12/30 09:35:02;;;;;;;7.80;1.30;;;6.10;99.90;;;;;;5102846;28;20035;-72
2023/12/30 09:37:28;;;;;;;14.13;1.65;;;6.20;99.90;;;;;;5132355;27;20044;-73
2023/12/30 09:39:54;;;;;;;9.68;1.00;;;6.30;99.90;;;;;;5134804;27;20478;-71
2023/12/30 09:42:20;;;;;;;10.63;1.25;;;6.30;99.90;;;;;;5101613;27;20099;-71
2023/12/30 09:44:50;;;;;;;7.18;1.30;;;6.30;99.90;;;;;;5134925;27;20043;-71
2023/12/30 09:47:17;;;;;;;3.72;0.80;;;6.40;99.90;;;;;;5101131;28;20043;-70
2023/12/30 09:49:44;;;;;;;9.45;1.42;;;6.40;99.90;;;;;;5132196;27;20041;-74
2023/12/30 09:52:10;;;;;;;13.60;1.48;;;6.50;99.90;;;;;;5101490;28;20042;-74
2023/12/30 09:54:37;;;;;;;8.07;1.27;;;6.60;99.90;;;;;;5100911;27;20367;-74
2023/12/30 09:57:03;;;;;;;9.15;1.65;;;6.50;99.90;;;;;;5101342;28;20071;-74
2023/12/30 09:59:30;;;;;;;9.73;1.02;;;6.60;99.90;;;;;;5103264;27;20127;-74
2023/12/30 10:01:56;;;;;;;4.22;0.90;;;6.60;99.90;;;;;;5101059;28;20078;-73
2023/12/30 10:04:23;;;;;;;7.82;1.52;;;6.70;99.90;;;;;;5102460;28;20429;-73
2023/12/30 10:06:53;;;;;;;7.00;1.30;;;6.70;99.90;;;;;;5101034;27;20039;-73
2023/12/30 10:09:20;;;;;;;7.88;0.88;;;6.70;99.90;;;;;;5100720;27;20040;-74
2023/12/30 10:11:46;;;;;;;8.40;1.17;;;6.80;99.90;;;;;;5131694;27;20048;-73
2023/12/30 10:14:12;;;;;;;10.75;1.23;;;6.90;99.90;;;;;;5133055;27;20043;-70
2023/12/30 10:16:38;;;;;;;7.15;1.27;;;6.80;99.90;;;;;;5116213;27;20046;-70
2023/12/30 10:19:13;;;;;;;6.43;1.23;;;6.90;99.90;;;;;;5103391;28;20096;-70
2023/12/30 10:21:38;;;;;;;9.70;2.53;;;6.90;99.90;;;;;;5104545;28;20082;-70
2023/12/30 10:24:04;;;;;;;7.00;1.65;;;6.90;99.90;;;;;;5090975;27;20044;-70
2023/12/30 10:26:37;;;;;;;7.82;1.10;;;6.90;99.90;;;;;;5104578;28;20107;-70
2023/12/30 10:29:03;;;;;;;11.98;2.67;;;6.90;99.90;;;;;;5104406;28;20071;-70
2023/12/30 10:31:28;;;;;;;11.15;1.38;;;7.00;99.90;;;;;;5102156;28;20489;-70
2023/12/30 10:33:54;;;;;;;9.35;1.55;;;7.00;99.90;;;;;;5096507;28;20055;-70
2023/12/30 10:36:20;;;;;;;10.57;1.70;;;7.00;99.90;;;;;;5102235;28;20062;-70
2023/12/30 10:38:46;;;;;;;10.00;1.85;;;7.00;99.90;;;;;;5141944;27;20089;-70
2023/12/30 10:41:12;;;;;;;4.65;0.95;;;7.10;99.90;;;;;;5108356;27;20047;-70
2023/12/30 10:43:38;;;;;;;6.85;0.80;;;7.10;99.90;;;;;;5107307;27;20036;-70
2023/12/30 10:46:10;;;;;;;8.57;1.42;;;7.10;99.90;;;;;;5104900;27;20488;-70
2023/12/30 10:48:43;;;;;;;11.88;1.65;;;7.20;99.90;;;;;;5105247;27;20040;-70
2023/12/30 10:51:10;;;;;;;7.85;1.45;;;7.20;99.90;;;;;;5107396;27;20052;-70
2023/12/30 10:53:39;;;;;;;9.43;1.63;;;7.30;99.90;;;;;;5106264;27;20451;-70
2023/12/30 10:56:08;;;;;;;10.13;2.42;;;7.40;99.90;;;;;;5109047;27;20039;-71
2023/12/30 10:58:35;;;;;;;8.07;1.58;;;7.40;99.90;;;;;;5108144;27;20123;-70
2023/12/30 11:01:02;;;;;;;9.85;1.65;;;7.50;99.90;;;;;;5143056;27;20044;-70
2023/12/30 11:03:31;;;;;;;8.32;1.90;;;7.60;99.90;;;;;;5106752;27;20485;-70
2023/12/30 11:06:18;;;;;;;10.60;2.30;;;7.60;99.90;;;;;;5105808;27;20054;-70
2023/12/30 11:08:44;;;;;;;8.02;2.35;;;7.60;99.90;;;;;;5102596;27;20043;-70
2023/12/30 11:11:17;;;;;;;8.30;2.65;;;7.60;99.90;;;;;;5107098;27;20032;-70
2023/12/30 11:13:44;;;;;;;11.85;2.80;;;7.70;99.90;;;;;;5103539;28;20508;-70
2023/12/30 11:16:19;;;;;;;9.25;2.15;;;7.70;99.90;;;;;;5103275;27;20046;-70
2023/12/30 11:18:49;;;;;;;;;;;7.80;99.90;;;;;;5138366;27;20063;-70
2023/12/30 11:21:44;;;;;;;9.27;2.45;;;7.90;99.90;;;;;;5107617;27;19919;-70
2023/12/30 11:24:11;;;;;;;11.15;3.05;;;7.90;99.90;;;;;;5108829;27;20031;-70
2023/12/30 11:26:40;;;;;;;12.63;2.28;;;7.90;99.90;;;;;;5104637;27;20043;-70
2023/12/30 11:29:10;;;;;;;10.30;2.83;;;8.00;99.90;;;;;;5103198;27;20499;-70
2023/12/30 11:31:39;;;;;;;11.48;2.42;;;8.00;99.90;;;;;;5139467;27;20073;-70
2023/12/30 11:34:04;;;;;;;9.75;2.10;;;8.10;99.90;;;;;;5107218;27;20118;-70
2023/12/30 11:36:31;;;;;;;14.48;3.08;;;8.20;99.90;;;;;;5104996;27;20702;-70
2023/12/30 11:38:58;;;;;;;8.23;2.00;;;8.10;99.90;;;;;;5104647;27;20047;-70
2023/12/30 11:41:28;;;;;;;15.38;1.80;;;8.20;99.90;;;;;;5110064;27;20088;-70
2023/12/30 11:44:03;;;;;;;16.45;2.08;;;8.30;99.90;;;;;;5104134;27;20036;-70
2023/12/30 11:46:29;;;;;;;14.10;2.97;;;8.30;99.90;;;;;;5108800;27;20377;-70
2023/12/30 11:48:59;;;;;;;10.07;2.65;;;8.30;99.90;;;;;;5106049;27;20550;-71
2023/12/30 11:51:27;;;;;;;12.15;2.47;;;8.30;99.90;;;;;;5103457;28;20044;-71
2023/12/30 11:53:53;;;;;;;10.93;2.20;;;8.40;99.90;;;;;;5106048;27;20048;-71
2023/12/30 11:56:19;;;;;;;9.90;2.20;;;8.40;99.90;;;;;;5104698;27;20045;-70
2023/12/30 11:58:46;;;;;;;10.95;2.58;;;8.40;99.90;;;;;;5101246;27;20053;-70
2023/12/30 12:01:12;;;;;;;12.45;2.35;;;8.30;99.90;;;;;;5105143;27;20056;-70
2023/12/30 12:03:39;;;;;;;10.65;2.05;;;8.40;99.90;;;;;;5138167;27;20071;-70
2023/12/30 12:06:06;;;;;;;14.30;2.13;;;8.40;99.90;;;;;;5136545;27;20523;-70
2023/12/30 12:08:31;;;;;;;9.18;1.73;;;8.40;99.90;;;;;;5106262;27;20036;-70
2023/12/30 12:10:57;;;;;;;7.40;1.70;;;8.40;99.90;;;;;;5140336;27;20089;-70
2023/12/30 12:13:24;;;;;;;11.35;2.22;;;8.40;99.90;;;;;;5105886;28;20036;-70
2023/12/30 12:15:55;;;;;;;8.90;1.85;;;8.60;99.90;;;;;;5106086;27;20036;-70
2023/12/30 12:18:22;;;;;;;9.35;2.50;;;8.60;99.90;;;;;;5106900;27;20075;-70
2023/12/30 12:20:51;;;;;;;9.77;2.05;;;8.50;99.90;;;;;;5138553;27;20040;-70
2023/12/30 12:23:17;;;;;;;13.40;2.60;;;8.50;99.90;;;;;;5136596;27;20084;-70
2023/12/30 12:25:44;;;;;;;10.15;2.28;;;8.50;99.90;;;;;;5105118;27;20039;-70
2023/12/30 12:28:11;;;;;;;10.25;1.50;;;8.50;99.90;;;;;;5105663;27;20036;-70
2023/12/30 12:30:37;;;;;;;7.65;1.33;;;8.50;99.90;;;;;;5138480;27;20067;-70
2023/12/30 12:33:04;;;;;;;9.82;2.00;;;8.50;99.90;;;;;;5106383;27;20040;-70
2023/12/30 12:35:30;;;;;;;9.10;2.70;;;8.50;99.90;;;;;;5101969;27;20031;-70
2023/12/30 12:37:57;;;;;;;11.45;2.53;;;8.50;99.90;;;;;;5104613;27;20055;-70
2023/12/30 12:40:23;;;;;;;10.18;2.03;;;8.60;99.90;;;;;;5106053;27;20048;-70
2023/12/30 12:42:49;;;;;;;10.88;2.05;;;8.50;99.90;;;;;;5100951;27;20085;-70
2023/12/30 12:45:14;;;;;;;11.95;2.22;;;8.60;99.90;;;;;;5107326;27;20038;-70
2023/12/30 12:47:40;;;;;;;18.17;2.55;;;8.60;99.90;;;;;;5104831;27;20050;-70
2023/12/30 12:50:07;;;;;;;8.75;2.17;;;8.60;99.90;;;;;;5103583;27;20047;-70